Overview Statistics Trail Chart Weather Telemetry Raw packets
 

This is the latest recevied weather packets stored in our database for station/object K0CPM-2. If no packets are shown the sender has not sent any weather packets the latest 10 day(s).

<< 2 3 4 5 6 7 8 >>
Time Temp. Humidity Pressure Rain* Wind** Luminosity Snow
1788490851 27.78° C 87% 1010.9 hPa 0 mm - - -
1788489953 28.33° C 85% 1011 hPa 0 mm - - -
1788489051 28.33° C 85% 1010.8 hPa 0 mm - - -
1788488155 28.33° C 85% 1011 hPa 0 mm - - -
1788487250 28.33° C 84% 1010.9 hPa 0 mm - - -
1788486384 28.33° C 84% 1010.7 hPa 0 mm - - -
1788485455 28.89° C 84% 1010.6 hPa 0 mm - - -
1788484548 29.44° C 81% 1010.5 hPa 0 mm - - -
1788483647 29.44° C 80% 1010.5 hPa 0 mm - - -
1788482746 29.44° C 80% 1010.7 hPa 0 mm - - -
1788481846 29.44° C 81% 1010.6 hPa 0 mm - - -
1788480946 29.44° C 80% 1010.6 hPa 0 mm - - -
1788480086 30° C 79% 1010.6 hPa 0 mm - - -
1788479144 30.56° C 76% 1010.4 hPa 0 mm - - -
1788478245 31.11° C 73% 1010.3 hPa 0 mm - - -
1788477347 32.22° C 72% 1010.2 hPa 0 mm - - -
1788476444 32.22° C 71% 1009.9 hPa 0 mm - - -
1788475551 32.22° C 71% 1010 hPa 0 mm - - -
1788474642 32.22° C 68% 1009.9 hPa 0 mm - - -
1788473742 32.78° C 64% 1010.1 hPa 0 mm - - -
1788472839 32.78° C 66% 1010.1 hPa 0 mm - - -
1788471947 32.78° C 67% 1010.2 hPa 0 mm - - -
1788471039 32.78° C 68% 1010.3 hPa 0 mm - - -
1788470141 32.22° C 71% 1010.4 hPa 0 mm - - -
1788469237 31.11° C 73% 1010.5 hPa 0 mm - - -

* Rain latest hour (hover to see other rain measurements)
** Current wind speed in m/s (hover to see current wind gust speed)